McClave, Colorado
Current Conditions -  °F | °C
As of 6:53 AM on Friday 24 Oct 2014 (Local Time) from KLAA Reporting Station
Clear Clear  
Wind Chill: 34°   Ceiling: Unl
Heat Index: 40°   Visibility: 10mi
Dew Point: 37°   Wind: 8mph
Humidity: 89%   Direction: 280°W
Pressure: 30.09"   Gusts: NA
Location:  38.14°N, 102.85°W
Report Text: KLAA 241253Z AUTO 28007KT 10SM CLR 04/03 A3009 RMK AO2 SLP177 T00440028
Loading
Personal Weather Stations






























Interactive Weather Map
Tropical Storm Tracking
New forecast layout! Learn more

10-Day Weather Forecast

Advertisements
Track Severe Weather on mobile